sensor_id;sensor_type;location;lat;lon;timestamp;pressure;altitude;pressure_sealevel;temperature;humidity
43436;BME280;36399;51.444;-2.018;2023-01-04T00:01:30;100351.97;;;11.32;100.00
43436;BME280;36399;51.444;-2.018;2023-01-04T00:03:57;100355.47;;;11.34;100.00
43436;BME280;36399;51.444;-2.018;2023-01-04T00:06:23;100340.56;;;11.32;100.00
43436;BME280;36399;51.444;-2.018;2023-01-04T00:08:49;100372.97;;;11.32;100.00
43436;BME280;36399;51.444;-2.018;2023-01-04T00:11:17;100355.44;;;11.31;100.00
43436;BME280;36399;51.444;-2.018;2023-01-04T00:16:20;100350.19;;;11.31;100.00
43436;BME280;36399;51.444;-2.018;2023-01-04T00:18:50;100351.94;;;11.29;100.00
43436;BME280;36399;51.444;-2.018;2023-01-04T00:23:55;100330.94;;;11.35;100.00
43436;BME280;36399;51.444;-2.018;2023-01-04T00:39:28;100336.13;;;11.26;100.00
43436;BME280;36399;51.444;-2.018;2023-01-04T00:41:55;100311.63;;;11.29;100.00
43436;BME280;36399;51.444;-2.018;2023-01-04T00:47:05;100330.03;;;11.27;100.00
43436;BME280;36399;51.444;-2.018;2023-01-04T00:49:32;100343.16;;;11.27;100.00
43436;BME280;36399;51.444;-2.018;2023-01-04T00:52:00;100329.09;;;11.22;100.00
43436;BME280;36399;51.444;-2.018;2023-01-04T00:54:27;100339.63;;;11.25;100.00
43436;BME280;36399;51.444;-2.018;2023-01-04T01:04:40;100351.91;;;11.28;100.00
43436;BME280;36399;51.444;-2.018;2023-01-04T01:07:07;100345.81;;;11.30;100.00
43436;BME280;36399;51.444;-2.018;2023-01-04T01:09:33;100349.31;;;11.29;100.00
43436;BME280;36399;51.444;-2.018;2023-01-04T01:11:59;100344.06;;;11.31;100.00
43436;BME280;36399;51.444;-2.018;2023-01-04T01:14:25;100334.41;;;11.28;100.00
43436;BME280;36399;51.444;-2.018;2023-01-04T01:16:52;100331.78;;;11.30;100.00
43436;BME280;36399;51.444;-2.018;2023-01-04T01:19:19;100336.13;;;11.26;100.00
43436;BME280;36399;51.444;-2.018;2023-01-04T01:21:45;100333.50;;;11.26;100.00
43436;BME280;36399;51.444;-2.018;2023-01-04T01:26:47;100323.03;;;11.32;100.00
43436;BME280;36399;51.444;-2.018;2023-01-04T01:29:13;100330.91;;;11.29;100.00
43436;BME280;36399;51.444;-2.018;2023-01-04T01:31:40;100327.41;;;11.30;100.00
43436;BME280;36399;51.444;-2.018;2023-01-04T01:34:06;100330.91;;;11.31;100.00
43436;BME280;36399;51.444;-2.018;2023-01-04T01:36:33;100328.25;;;11.26;100.00
43436;BME280;36399;51.444;-2.018;2023-01-04T01:41:35;100316.00;;;11.28;100.00
43436;BME280;36399;51.444;-2.018;2023-01-04T01:52:00;100316.00;;;11.28;100.00
43436;BME280;36399;51.444;-2.018;2023-01-04T01:54:34;100298.47;;;11.24;100.00
43436;BME280;36399;51.444;-2.018;2023-01-04T01:57:05;100308.06;;;11.19;100.00
43436;BME280;36399;51.444;-2.018;2023-01-04T01:59:34;100306.31;;;11.18;100.00
43436;BME280;36399;51.444;-2.018;2023-01-04T02:02:03;100311.53;;;11.15;100.00
43436;BME280;36399;51.444;-2.018;2023-01-04T02:04:30;100294.88;;;11.15;100.00
43436;BME280;36399;51.444;-2.018;2023-01-04T02:06:56;100324.69;;;11.18;100.00
43436;BME280;36399;51.444;-2.018;2023-01-04T02:09:24;100290.53;;;11.18;100.00
43436;BME280;36399;51.444;-2.018;2023-01-04T02:11:50;100281.75;;;11.16;100.00
43436;BME280;36399;51.444;-2.018;2023-01-04T02:14:20;100285.28;;;11.20;100.00
43436;BME280;36399;51.444;-2.018;2023-01-04T02:27:55;100278.31;;;11.26;100.00
43436;BME280;36399;51.444;-2.018;2023-01-04T02:33:32;100285.31;;;11.24;100.00
43436;BME280;36399;51.444;-2.018;2023-01-04T02:38:52;100285.38;;;11.30;100.00
43436;BME280;36399;51.444;-2.018;2023-01-04T02:41:45;100288.03;;;11.35;100.00
43436;BME280;36399;51.444;-2.018;2023-01-04T02:44:27;100278.41;;;11.38;100.00
43436;BME280;36399;51.444;-2.018;2023-01-04T02:47:35;100290.66;;;11.36;100.00
43436;BME280;36399;51.444;-2.018;2023-01-04T02:50:26;100283.66;;;11.38;100.00
43436;BME280;36399;51.444;-2.018;2023-01-04T02:53:22;100289.81;;;11.41;100.00
43436;BME280;36399;51.444;-2.018;2023-01-04T02:58:56;100273.13;;;11.35;100.00
43436;BME280;36399;51.444;-2.018;2023-01-04T03:08:22;100293.28;;;11.33;100.00
43436;BME280;36399;51.444;-2.018;2023-01-04T03:13:27;100296.75;;;11.31;100.00
43436;BME280;36399;51.444;-2.018;2023-01-04T03:16:02;100295.00;;;11.30;100.00
43436;BME280;36399;51.444;-2.018;2023-01-04T03:18:36;100294.09;;;11.26;100.00
43436;BME280;36399;51.444;-2.018;2023-01-04T03:21:03;100286.22;;;11.26;100.00
43436;BME280;36399;51.444;-2.018;2023-01-04T03:23:34;100288.81;;;11.23;100.00
43436;BME280;36399;51.444;-2.018;2023-01-04T03:26:25;100300.19;;;11.21;100.00
43436;BME280;36399;51.444;-2.018;2023-01-04T03:29:16;100287.09;;;11.25;100.00
43436;BME280;36399;51.444;-2.018;2023-01-04T03:32:10;100287.03;;;11.19;100.00
43436;BME280;36399;51.444;-2.018;2023-01-04T03:34:56;100276.53;;;11.19;100.00
43436;BME280;36399;51.444;-2.018;2023-01-04T03:37:50;100285.28;;;11.18;100.00
43436;BME280;36399;51.444;-2.018;2023-01-04T03:40:40;100290.53;;;11.18;100.00
43436;BME280;36399;51.444;-2.018;2023-01-04T03:43:36;100292.28;;;11.19;100.00
43436;BME280;36399;51.444;-2.018;2023-01-04T03:46:33;100322.94;;;11.17;100.00
43436;BME280;36399;51.444;-2.018;2023-01-04T03:49:35;100301.94;;;11.22;100.00
43436;BME280;36399;51.444;-2.018;2023-01-04T03:52:06;100303.69;;;11.20;100.00
43436;BME280;36399;51.444;-2.018;2023-01-04T03:54:46;100310.72;;;11.24;100.00
43436;BME280;36399;51.444;-2.018;2023-01-04T03:57:14;100304.59;;;11.26;100.00
43436;BME280;36399;51.444;-2.018;2023-01-04T03:59:46;100300.22;;;11.25;100.00
43436;BME280;36399;51.444;-2.018;2023-01-04T04:02:14;100335.25;;;11.26;100.00
43436;BME280;36399;51.444;-2.018;2023-01-04T04:04:44;100319.50;;;11.26;100.00
43436;BME280;36399;51.444;-2.018;2023-01-04T04:07:29;100323.91;;;11.28;100.00
43436;BME280;36399;51.444;-2.018;2023-01-04T04:10:13;100326.53;;;11.28;100.00
43436;BME280;36399;51.444;-2.018;2023-01-04T04:12:39;100334.41;;;11.28;100.00
43436;BME280;36399;51.444;-2.018;2023-01-04T04:15:06;100331.78;;;11.27;100.00
43436;BME280;36399;51.444;-2.018;2023-01-04T04:17:32;100299.38;;;11.29;100.00
43436;BME280;36399;51.444;-2.018;2023-01-04T04:19:57;100330.91;;;11.28;100.00
43436;BME280;36399;51.444;-2.018;2023-01-04T04:22:23;100328.28;;;11.28;100.00
43436;BME280;36399;51.444;-2.018;2023-01-04T04:24:54;100337.94;;;11.30;100.00
43436;BME280;36399;51.444;-2.018;2023-01-04T04:27:19;100339.66;;;11.27;100.00
43436;BME280;36399;51.444;-2.018;2023-01-04T04:29:45;100351.06;;;11.29;100.00
43436;BME280;36399;51.444;-2.018;2023-01-04T04:32:11;100344.94;;;11.31;100.00
43436;BME280;36399;51.444;-2.018;2023-01-04T04:34:37;100355.44;;;11.28;100.00
43436;BME280;36399;51.444;-2.018;2023-01-04T04:37:03;100352.81;;;11.30;100.00
43436;BME280;36399;51.444;-2.018;2023-01-04T04:39:29;100360.72;;;11.31;100.00
43436;BME280;36399;51.444;-2.018;2023-01-04T04:41:55;100378.22;;;11.31;100.00
43436;BME280;36399;51.444;-2.018;2023-01-04T04:44:21;100379.97;;;11.30;100.00
43436;BME280;36399;51.444;-2.018;2023-01-04T04:46:47;100371.22;;;11.31;100.00
43436;BME280;36399;51.444;-2.018;2023-01-04T04:49:14;100367.72;;;11.32;100.00
43436;BME280;36399;51.444;-2.018;2023-01-04T04:51:40;100367.72;;;11.32;100.00
43436;BME280;36399;51.444;-2.018;2023-01-04T04:54:08;100366.84;;;11.30;100.00
43436;BME280;36399;51.444;-2.018;2023-01-04T04:56:34;100359.81;;;11.29;100.00
43436;BME280;36399;51.444;-2.018;2023-01-04T04:59:04;100358.06;;;11.28;100.00
43436;BME280;36399;51.444;-2.018;2023-01-04T05:01:31;100338.75;;;11.25;100.00
43436;BME280;36399;51.444;-2.018;2023-01-04T05:03:57;100350.13;;;11.22;100.00
43436;BME280;36399;51.444;-2.018;2023-01-04T05:06:23;100337.00;;;11.25;100.00
43436;BME280;36399;51.444;-2.018;2023-01-04T05:08:49;100345.75;;;11.23;100.00
43436;BME280;36399;51.444;-2.018;2023-01-04T05:11:15;100334.34;;;11.21;100.00
43436;BME280;36399;51.444;-2.018;2023-01-04T05:13:41;100344.00;;;11.22;100.00
43436;BME280;36399;51.444;-2.018;2023-01-04T05:16:08;100356.28;;;11.24;100.00
43436;BME280;36399;51.444;-2.018;2023-01-04T05:18:34;100368.56;;;11.27;100.00
43436;BME280;36399;51.444;-2.018;2023-01-04T05:21:00;100352.81;;;11.30;100.00
43436;BME280;36399;51.444;-2.018;2023-01-04T05:23:27;100367.69;;;11.26;100.00
43436;BME280;36399;51.444;-2.018;2023-01-04T05:25:59;100367.69;;;11.28;100.00
43436;BME280;36399;51.444;-2.018;2023-01-04T05:28:25;100365.09;;;11.31;100.00
43436;BME280;36399;51.444;-2.018;2023-01-04T05:30:52;100372.06;;;11.29;100.00
43436;BME280;36399;51.444;-2.018;2023-01-04T05:33:23;100364.22;;;11.30;100.00
43436;BME280;36399;51.444;-2.018;2023-01-04T05:35:50;100358.94;;;11.30;100.00
43436;BME280;36399;51.444;-2.018;2023-01-04T05:38:17;100366.81;;;11.27;100.00
43436;BME280;36399;51.444;-2.018;2023-01-04T05:40:43;100358.06;;;11.28;100.00
43436;BME280;36399;51.444;-2.018;2023-01-04T05:43:09;100348.38;;;11.24;100.00
43436;BME280;36399;51.444;-2.018;2023-01-04T05:45:35;100362.41;;;11.23;100.00
43436;BME280;36399;51.444;-2.018;2023-01-04T05:48:01;100375.53;;;11.25;100.00
43436;BME280;36399;51.444;-2.018;2023-01-04T05:50:27;100368.53;;;11.25;100.00
43436;BME280;36399;51.444;-2.018;2023-01-04T05:52:53;100379.94;;;11.27;100.00
43436;BME280;36399;51.444;-2.018;2023-01-04T05:55:19;100389.56;;;11.27;100.00
43436;BME280;36399;51.444;-2.018;2023-01-04T05:57:45;100392.22;;;11.28;100.00
43436;BME280;36399;51.444;-2.018;2023-01-04T06:00:12;100385.22;;;11.27;100.00
43436;BME280;36399;51.444;-2.018;2023-01-04T06:02:39;100396.59;;;11.29;100.00
43436;BME280;36399;51.444;-2.018;2023-01-04T06:05:06;100399.22;;;11.29;100.00
43436;BME280;36399;51.444;-2.018;2023-01-04T06:07:32;100398.38;;;11.30;100.00
43436;BME280;36399;51.444;-2.018;2023-01-04T06:09:58;100420.28;;;11.32;100.00
43436;BME280;36399;51.444;-2.018;2023-01-04T06:12:24;100412.44;;;11.35;100.00
43436;BME280;36399;51.444;-2.018;2023-01-04T06:14:50;100432.56;;;11.33;100.00
43436;BME280;36399;51.444;-2.018;2023-01-04T06:17:16;100432.56;;;11.33;100.00
43436;BME280;36399;51.444;-2.018;2023-01-04T06:19:42;100440.47;;;11.35;100.00
43436;BME280;36399;51.444;-2.018;2023-01-04T06:22:08;100435.19;;;11.33;100.00
43436;BME280;36399;51.444;-2.018;2023-01-04T06:24:34;100444.84;;;11.34;100.00
43436;BME280;36399;51.444;-2.018;2023-01-04T06:27:01;100437.81;;;11.35;100.00
43436;BME280;36399;51.444;-2.018;2023-01-04T06:29:27;100450.06;;;11.31;100.00
43436;BME280;36399;51.444;-2.018;2023-01-04T06:31:54;100443.94;;;11.32;100.00
43436;BME280;36399;51.444;-2.018;2023-01-04T06:34:20;100448.31;;;11.30;100.00
43436;BME280;36399;51.444;-2.018;2023-01-04T06:36:46;100446.56;;;11.32;100.00
43436;BME280;36399;51.444;-2.018;2023-01-04T06:39:12;100429.00;;;11.28;100.00
43436;BME280;36399;51.444;-2.018;2023-01-04T06:41:38;100436.00;;;11.26;100.00
43436;BME280;36399;51.444;-2.018;2023-01-04T06:44:04;100432.53;;;11.30;100.00
43436;BME280;36399;51.444;-2.018;2023-01-04T06:46:30;100430.78;;;11.29;100.00
43436;BME280;36399;51.444;-2.018;2023-01-04T06:48:55;100429.03;;;11.31;100.00
43436;BME280;36399;51.444;-2.018;2023-01-04T06:51:23;100434.28;;;11.31;100.00
43436;BME280;36399;51.444;-2.018;2023-01-04T06:53:49;100428.16;;;11.31;100.00
43436;BME280;36399;51.444;-2.018;2023-01-04T06:56:15;100427.22;;;11.24;100.00
43436;BME280;36399;51.444;-2.018;2023-01-04T06:58:41;100427.25;;;11.27;100.00
43436;BME280;36399;51.444;-2.018;2023-01-04T07:01:07;100404.47;;;11.26;100.00
43436;BME280;36399;51.444;-2.018;2023-01-04T07:03:33;100401.88;;;11.29;100.00
43436;BME280;36399;51.444;-2.018;2023-01-04T07:06:02;100400.09;;;11.27;100.00
43436;BME280;36399;51.444;-2.018;2023-01-04T07:08:28;100397.44;;;11.22;100.00
43436;BME280;36399;51.444;-2.018;2023-01-04T08:08:28;100407.53;;;10.83;100.00
43436;BME280;36399;51.444;-2.018;2023-01-04T08:10:54;100405.78;;;10.85;100.00
43436;BME280;36399;51.444;-2.018;2023-01-04T08:13:20;100423.28;;;10.83;100.00
43436;BME280;36399;51.444;-2.018;2023-01-04T08:15:53;100427.56;;;10.74;100.00
43436;BME280;36399;51.444;-2.018;2023-01-04T08:23:32;100449.59;;;10.89;100.00
43436;BME280;36399;51.444;-2.018;2023-01-04T09:55:24;100509.06;;;11.59;100.00
43436;BME280;36399;51.444;-2.018;2023-01-04T09:58:05;100506.50;;;11.67;100.00
43436;BME280;36399;51.444;-2.018;2023-01-04T10:00:37;100503.00;;;11.69;100.00
43436;BME280;36399;51.444;-2.018;2023-01-04T10:05:43;100502.16;;;11.70;100.00
43436;BME280;36399;51.444;-2.018;2023-01-04T10:08:14;100506.53;;;11.73;100.00
43436;BME280;36399;51.444;-2.018;2023-01-04T10:10:49;100522.34;;;11.76;100.00
43436;BME280;36399;51.444;-2.018;2023-01-04T10:13:26;100518.84;;;11.77;100.00
43436;BME280;36399;51.444;-2.018;2023-01-04T10:18:54;100529.44;;;11.80;100.00
43436;BME280;36399;51.444;-2.018;2023-01-04T10:26:44;100525.03;;;11.79;100.00
43436;BME280;36399;51.444;-2.018;2023-01-04T10:29:35;100525.03;;;11.79;100.00
43436;BME280;36399;51.444;-2.018;2023-01-04T10:34:41;100530.22;;;11.73;100.00
43436;BME280;36399;51.444;-2.018;2023-01-04T10:37:14;100554.72;;;11.69;100.00
43436;BME280;36399;51.444;-2.018;2023-01-04T10:39:43;100543.47;;;11.81;100.00
43436;BME280;36399;51.444;-2.018;2023-01-04T10:42:36;100545.22;;;11.82;100.00
43436;BME280;36399;51.444;-2.018;2023-01-04T10:46:10;100568.03;;;11.84;100.00
43436;BME280;36399;51.444;-2.018;2023-01-04T10:50:47;100545.22;;;11.82;100.00
43436;BME280;36399;51.444;-2.018;2023-01-04T10:56:03;100548.72;;;11.81;100.00
43436;BME280;36399;51.444;-2.018;2023-01-04T11:01:24;100583.69;;;11.74;100.00
43436;BME280;36399;51.444;-2.018;2023-01-04T11:03:58;100564.50;;;11.79;100.00
43436;BME280;36399;51.444;-2.018;2023-01-04T11:09:28;100599.50;;;11.75;100.00
43436;BME280;36399;51.444;-2.018;2023-01-04T11:26:23;100545.25;;;11.83;100.00
43436;BME280;36399;51.444;-2.018;2023-01-04T11:28:56;100541.03;;;12.00;100.00
43436;BME280;36399;51.444;-2.018;2023-01-04T11:33:56;100550.97;;;12.40;100.00
43436;BME280;36399;51.444;-2.018;2023-01-04T11:38:57;100558.22;;;12.76;100.00
43436;BME280;36399;51.444;-2.018;2023-01-04T11:41:24;100545.94;;;12.78;100.00
43436;BME280;36399;51.444;-2.018;2023-01-04T11:44:02;100543.19;;;12.55;100.00
43436;BME280;36399;51.444;-2.018;2023-01-04T11:46:30;100543.22;;;12.59;100.00
43436;BME280;36399;51.444;-2.018;2023-01-04T11:48:57;100551.09;;;12.56;100.00
43436;BME280;36399;51.444;-2.018;2023-01-04T11:54:19;100524.63;;;12.37;100.00
43436;BME280;36399;51.444;-2.018;2023-01-04T11:57:17;100529.88;;;12.33;100.00
43436;BME280;36399;51.444;-2.018;2023-01-04T11:59:43;100528.09;;;12.31;100.00
43436;BME280;36399;51.444;-2.018;2023-01-04T12:02:23;100528.94;;;12.27;100.00
43436;BME280;36399;51.444;-2.018;2023-01-04T12:04:51;100540.31;;;12.20;100.00
43436;BME280;36399;51.444;-2.018;2023-01-04T12:07:27;100546.38;;;12.10;100.00
43436;BME280;36399;51.444;-2.018;2023-01-04T12:09:54;100549.03;;;12.13;100.00
43436;BME280;36399;51.444;-2.018;2023-01-04T12:12:22;100547.22;;;12.06;100.00
43436;BME280;36399;51.444;-2.018;2023-01-04T12:14:49;100537.44;;;11.95;100.00
43436;BME280;36399;51.444;-2.018;2023-01-04T12:17:25;100575.22;;;11.97;100.00
43436;BME280;36399;51.444;-2.018;2023-01-04T12:19:55;100561.06;;;11.86;100.00
43436;BME280;36399;51.444;-2.018;2023-01-04T12:22:35;100593.34;;;11.75;100.00
43436;BME280;36399;51.444;-2.018;2023-01-04T12:25:04;100574.69;;;11.49;100.00
43436;BME280;36399;51.444;-2.018;2023-01-04T12:27:32;100589.34;;;11.30;100.00
43436;BME280;36399;51.444;-2.018;2023-01-04T12:30:04;100611.84;;;11.06;100.00
43436;BME280;36399;51.444;-2.018;2023-01-04T12:34:56;100602.34;;;10.56;100.00
43436;BME280;36399;51.444;-2.018;2023-01-04T12:37:43;100604.84;;;10.48;100.00
43436;BME280;36399;51.444;-2.018;2023-01-04T12:45:41;100598.56;;;10.96;100.00
43436;BME280;36399;51.444;-2.018;2023-01-04T13:11:00;100569.56;;;11.62;100.00
43436;BME280;36399;51.444;-2.018;2023-01-04T13:16:16;100557.31;;;11.66;100.00
43436;BME280;36399;51.444;-2.018;2023-01-04T13:44:42;100563.00;;;12.06;100.00
43436;BME280;36399;51.444;-2.018;2023-01-04T13:55:22;100556.97;;;12.19;100.00
43436;BME280;36399;51.444;-2.018;2023-01-04T17:43:40;100800.53;;;10.34;100.00
43436;BME280;36399;51.444;-2.018;2023-01-04T17:46:13;100799.59;;;10.30;100.00
43436;BME280;36399;51.444;-2.018;2023-01-04T18:54:13;100803.34;;;9.99;100.00
43436;BME280;36399;51.444;-2.018;2023-01-04T18:56:45;100785.88;;;10.01;100.00
43436;BME280;36399;51.444;-2.018;2023-01-04T18:59:12;100816.50;;;10.02;100.00
43436;BME280;36399;51.444;-2.018;2023-01-04T21:06:37;100919.88;;;10.12;100.00
43436;BME280;36399;51.444;-2.018;2023-01-04T21:11:33;100920.78;;;10.12;100.00
43436;BME280;36399;51.444;-2.018;2023-01-04T21:14:03;100931.34;;;10.16;100.00
43436;BME280;36399;51.444;-2.018;2023-01-04T21:22:08;100936.44;;;10.09;100.00
43436;BME280;36399;51.444;-2.018;2023-01-04T21:34:57;100952.22;;;10.11;100.00
43436;BME280;36399;51.444;-2.018;2023-01-04T21:37:23;100954.00;;;10.12;100.00
43436;BME280;36399;51.444;-2.018;2023-01-04T22:06:03;100935.59;;;9.73;100.00
43436;BME280;36399;51.444;-2.018;2023-01-04T22:14:11;100953.75;;;9.65;100.00
43436;BME280;36399;51.444;-2.018;2023-01-04T22:19:16;100954.72;;;9.69;100.00
43436;BME280;36399;51.444;-2.018;2023-01-04T22:21:42;100949.59;;;9.73;100.00
43436;BME280;36399;51.444;-2.018;2023-01-04T22:24:15;100961.13;;;9.81;100.00
43436;BME280;36399;51.444;-2.018;2023-01-04T22:26:42;100961.13;;;9.81;100.00
43436;BME280;36399;51.444;-2.018;2023-01-04T22:37:33;100970.81;;;9.84;100.00
43436;BME280;36399;51.444;-2.018;2023-01-04T22:40:00;100975.09;;;9.80;100.00
43436;BME280;36399;51.444;-2.018;2023-01-04T22:47:38;100948.59;;;9.68;100.00
43436;BME280;36399;51.444;-2.018;2023-01-04T22:52:40;100947.50;;;9.59;100.00
43436;BME280;36399;51.444;-2.018;2023-01-04T22:55:06;100951.78;;;9.55;100.00
43436;BME280;36399;51.444;-2.018;2023-01-04T22:57:35;100943.88;;;9.54;100.00
43436;BME280;36399;51.444;-2.018;2023-01-04T23:05:13;100945.34;;;9.42;100.00
43436;BME280;36399;51.444;-2.018;2023-01-04T23:07:39;100946.16;;;9.40;100.00
43436;BME280;36399;51.444;-2.018;2023-01-04T23:21:50;100973.53;;;9.53;100.00
43436;BME280;36399;51.444;-2.018;2023-01-04T23:24:16;100984.97;;;9.55;100.00
43436;BME280;36399;51.444;-2.018;2023-01-04T23:29:18;100982.63;;;9.67;100.00
43436;BME280;36399;51.444;-2.018;2023-01-04T23:39:50;100977.66;;;9.77;100.00
43436;BME280;36399;51.444;-2.018;2023-01-04T23:47:28;100998.50;;;9.73;100.00
43436;BME280;36399;51.444;-2.018;2023-01-04T23:49:54;100995.22;;;9.81;100.00
43436;BME280;36399;51.444;-2.018;2023-01-04T23:57:38;101012.63;;;9.78;100.00
